createdAt,value
2022-10-17T00:00:48.968Z,100339.63
2022-10-17T00:03:16.249Z,100334.31
2022-10-17T00:05:45.840Z,100333.78
2022-10-17T00:08:15.648Z,100328.31
2022-10-17T00:10:43.054Z,100337.78
2022-10-17T00:13:10.117Z,100331.25
2022-10-17T00:15:36.959Z,100327.31
2022-10-17T00:18:04.037Z,100331.28
2022-10-17T00:20:30.822Z,100336.28
2022-10-17T00:22:57.649Z,100332.06
2022-10-17T00:25:24.429Z,100339.16
2022-10-17T00:27:51.360Z,100337.63
2022-10-17T00:30:18.330Z,100337.81
2022-10-17T00:32:45.750Z,100342.00
2022-10-17T00:35:12.892Z,100341.47
2022-10-17T00:37:39.682Z,100344.34
2022-10-17T00:40:07.879Z,100354.59
2022-10-17T00:42:34.841Z,100353.81
2022-10-17T00:45:22.912Z,100347.22
2022-10-17T00:48:07.192Z,100344.41
2022-10-17T00:50:39.006Z,100341.78
2022-10-17T00:53:09.283Z,100337.84
2022-10-17T00:55:42.653Z,100342.34
2022-10-17T00:58:09.616Z,100338.41
2022-10-17T01:00:36.392Z,100336.28
2022-10-17T01:03:05.100Z,100337.09
2022-10-17T01:05:33.426Z,100340.75
2022-10-17T01:08:01.557Z,100337.63
2022-10-17T01:10:35.414Z,100337.88
2022-10-17T01:13:43.009Z,100339.75
2022-10-17T01:16:16.546Z,100335.00
2022-10-17T01:19:02.884Z,100341.59
2022-10-17T01:21:55.497Z,100336.59
2022-10-17T01:24:40.487Z,100326.34
2022-10-17T01:27:20.037Z,100322.16
2022-10-17T01:29:57.844Z,100321.38
2022-10-17T01:32:35.417Z,100321.63
2022-10-17T01:35:24.278Z,100322.66
2022-10-17T01:38:03.135Z,100319.00
2022-10-17T01:40:37.098Z,100321.88
2022-10-17T01:43:13.166Z,100313.22
2022-10-17T01:45:52.907Z,100308.72
2022-10-17T01:48:25.360Z,100315.28
2022-10-17T01:50:58.176Z,100314.22
2022-10-17T01:53:39.640Z,100314.75
2022-10-17T01:56:10.025Z,100313.22
2022-10-17T01:58:43.867Z,100319.75
2022-10-17T02:01:13.319Z,100313.44
2022-10-17T02:03:43.967Z,100311.31
2022-10-17T02:06:10.994Z,100311.38
2022-10-17T02:08:50.211Z,100314.81
2022-10-17T02:11:19.963Z,100312.19
2022-10-17T02:13:58.845Z,100311.91
2022-10-17T02:17:03.262Z,100309.53
2022-10-17T02:19:56.430Z,100299.31
2022-10-17T02:22:44.111Z,100307.47
2022-10-17T02:25:42.382Z,100300.88
2022-10-17T02:28:24.069Z,100308.25
2022-10-17T02:31:21.431Z,100304.56
2022-10-17T02:34:02.931Z,100316.63
2022-10-17T02:36:35.492Z,100311.41
2022-10-17T02:39:05.390Z,100318.75
2022-10-17T02:41:34.250Z,100314.53
2022-10-17T02:44:04.229Z,100320.31
2022-10-17T02:46:33.304Z,100325.56
2022-10-17T02:49:25.377Z,100324.78
2022-10-17T02:52:13.742Z,100324.25
2022-10-17T02:54:51.434Z,100320.84
2022-10-17T02:57:21.341Z,100333.41
2022-10-17T02:59:50.347Z,100325.56
2022-10-17T03:02:18.181Z,100323.94
2022-10-17T03:04:46.995Z,100329.47
2022-10-17T03:07:13.997Z,100330.78
2022-10-17T03:09:40.952Z,100337.31
2022-10-17T03:12:08.104Z,100341.25
2022-10-17T03:14:35.636Z,100334.91
2022-10-17T03:17:03.874Z,100332.00
2022-10-17T03:19:31.049Z,100341.53
2022-10-17T03:21:57.916Z,100339.69
2022-10-17T03:24:26.117Z,100347.53
2022-10-17T03:26:53.428Z,100345.72
2022-10-17T03:29:20.377Z,100351.22
2022-10-17T03:31:47.875Z,100354.91
2022-10-17T03:34:14.988Z,100352.78
2022-10-17T03:36:41.804Z,100356.50
2022-10-17T03:39:08.778Z,100358.81
2022-10-17T03:41:35.562Z,100364.31
2022-10-17T03:44:03.194Z,100360.09
2022-10-17T03:46:31.106Z,100369.06
2022-10-17T03:49:00.076Z,100371.09
2022-10-17T03:51:27.110Z,100370.53
2022-10-17T03:54:00.905Z,100371.63
2022-10-17T03:56:28.080Z,100378.00
2022-10-17T03:59:09.728Z,100379.34
2022-10-17T04:01:38.599Z,100383.19
2022-10-17T04:04:05.618Z,100381.59
2022-10-17T04:06:35.798Z,100380.50
2022-10-17T04:09:03.901Z,100387.88
2022-10-17T04:11:53.909Z,100381.31
2022-10-17T04:14:22.016Z,100388.66
2022-10-17T04:16:48.909Z,100391.13
2022-10-17T04:19:20.483Z,100391.31
2022-10-17T04:21:48.142Z,100386.59
2022-10-17T04:24:15.541Z,100390.31
2022-10-17T04:26:53.095Z,100387.16
2022-10-17T04:29:22.353Z,100392.16
2022-10-17T04:31:51.763Z,100387.44
2022-10-17T04:34:44.550Z,100389.25
2022-10-17T04:37:11.515Z,100405.31
2022-10-17T04:39:38.332Z,100397.38
2022-10-17T04:42:05.353Z,100404.28
2022-10-17T04:44:32.464Z,100408.09
2022-10-17T04:46:59.735Z,100406.59
2022-10-17T04:49:27.570Z,100408.16
2022-10-17T04:51:59.316Z,100409.09
2022-10-17T04:54:38.011Z,100407.75
2022-10-17T04:57:10.209Z,100404.63
2022-10-17T04:59:38.955Z,100410.38
2022-10-17T05:02:28.693Z,100415.63
2022-10-17T05:04:57.055Z,100424.00
2022-10-17T05:07:24.335Z,100427.69
2022-10-17T05:09:58.698Z,100429.72
2022-10-17T05:12:26.561Z,100438.94
2022-10-17T05:14:54.182Z,100432.09
2022-10-17T05:17:22.259Z,100437.88
2022-10-17T05:19:50.126Z,100437.59
2022-10-17T05:22:17.132Z,100444.13
2022-10-17T05:24:44.025Z,100442.59
2022-10-17T05:27:11.384Z,100451.22
2022-10-17T05:29:38.318Z,100454.06
2022-10-17T05:32:16.611Z,100454.31
2022-10-17T05:34:43.780Z,100453.56
2022-10-17T05:37:11.530Z,100454.91
2022-10-17T05:39:39.600Z,100462.72
2022-10-17T05:42:07.692Z,100464.09
2022-10-17T05:44:35.352Z,100469.09
2022-10-17T05:47:02.721Z,100469.94
2022-10-17T05:49:44.739Z,100478.63
2022-10-17T05:52:16.302Z,100486.78
2022-10-17T05:55:07.020Z,100483.38
2022-10-17T05:57:34.000Z,100489.69
2022-10-17T06:00:02.383Z,100490.78
2022-10-17T06:02:41.142Z,100491.06
2022-10-17T06:05:09.504Z,100491.34
2022-10-17T06:07:36.835Z,100492.66
2022-10-17T06:10:06.189Z,100492.66
2022-10-17T06:12:33.405Z,100496.88
2022-10-17T06:15:00.325Z,100493.50
2022-10-17T06:17:27.212Z,100506.09
2022-10-17T06:19:54.133Z,100504.03
2022-10-17T06:22:21.403Z,100511.94
2022-10-17T06:24:48.254Z,100508.53
2022-10-17T06:27:15.456Z,100509.09
2022-10-17T06:29:42.340Z,100509.91
2022-10-17T06:32:12.765Z,100515.16
2022-10-17T06:34:43.916Z,100525.69
2022-10-17T06:37:11.079Z,100522.06
2022-10-17T06:39:39.904Z,100523.13
2022-10-17T06:42:15.781Z,100536.78
2022-10-17T06:44:48.834Z,100534.19
2022-10-17T06:47:21.452Z,100544.97
2022-10-17T06:49:49.613Z,100546.03
2022-10-17T06:52:31.809Z,100549.47
2022-10-17T06:55:27.597Z,100544.50
2022-10-17T06:58:17.236Z,100545.81
2022-10-17T07:01:10.297Z,100545.78
2022-10-17T07:03:38.218Z,100547.63
2022-10-17T07:06:06.199Z,100559.19
2022-10-17T07:08:33.447Z,100562.38
2022-10-17T07:11:13.909Z,100561.25
2022-10-17T07:13:42.337Z,100564.69
2022-10-17T07:16:10.103Z,100567.28
2022-10-17T07:18:39.744Z,100566.47
2022-10-17T07:21:07.835Z,100575.66
2022-10-17T07:23:36.880Z,100573.00
2022-10-17T07:26:07.751Z,100569.78
2022-10-17T07:28:38.805Z,100564.47
2022-10-17T07:31:18.342Z,100568.38
2022-10-17T07:36:14.535Z,100563.00
2022-10-17T07:38:42.019Z,100564.78
2022-10-17T07:41:11.376Z,100566.06
2022-10-17T07:43:38.409Z,100564.63
2022-10-17T07:46:07.576Z,100547.72
2022-10-17T07:48:34.967Z,100554.50
2022-10-17T07:51:04.073Z,100563.41
2022-10-17T07:53:30.915Z,100564.91
2022-10-17T07:55:58.297Z,100572.50
2022-10-17T07:58:25.194Z,100571.34
2022-10-17T08:00:52.024Z,100567.28
2022-10-17T08:03:18.891Z,100565.88
2022-10-17T08:05:45.647Z,100563.19
2022-10-17T08:08:12.399Z,100564.69
2022-10-17T08:10:39.240Z,100565.69
2022-10-17T08:13:06.056Z,100571.69
2022-10-17T08:15:32.870Z,100582.44
2022-10-17T08:17:59.830Z,100576.72
2022-10-17T08:20:26.785Z,100593.00
2022-10-17T08:22:56.567Z,100588.41
2022-10-17T08:25:23.606Z,100582.78
2022-10-17T08:27:50.613Z,100590.63
2022-10-17T08:30:17.604Z,100584.25
2022-10-17T08:32:44.348Z,100587.84
2022-10-17T08:35:11.070Z,100584.53
2022-10-17T08:37:37.906Z,100585.84
2022-10-17T08:40:05.094Z,100586.53
2022-10-17T08:43:04.352Z,100585.91
2022-10-17T08:45:55.170Z,100584.25
2022-10-17T08:48:25.538Z,100585.25
2022-10-17T08:50:58.209Z,100584.88
2022-10-17T08:53:31.930Z,100581.28
2022-10-17T08:56:11.878Z,100575.41
2022-10-17T08:58:39.006Z,100576.69
2022-10-17T09:01:29.133Z,100580.06
2022-10-17T09:04:12.138Z,100574.19
2022-10-17T09:06:46.503Z,100576.53
2022-10-17T09:09:32.572Z,100581.94
2022-10-17T09:12:24.673Z,100591.38
2022-10-17T09:15:09.774Z,100587.84
2022-10-17T09:18:22.670Z,100582.47
2022-10-17T09:20:57.902Z,100589.25
2022-10-17T09:23:45.397Z,100586.81
2022-10-17T09:26:13.105Z,100578.25
2022-10-17T09:28:42.255Z,100587.03
2022-10-17T09:31:20.535Z,100587.84
2022-10-17T09:33:54.180Z,100586.44
2022-10-17T09:36:28.397Z,100584.00
2022-10-17T09:38:59.130Z,100596.88
2022-10-17T09:41:50.512Z,100582.72
2022-10-17T09:44:19.790Z,100591.47
2022-10-17T09:46:52.595Z,100583.28
2022-10-17T09:49:26.102Z,100585.09
2022-10-17T09:51:53.065Z,100582.63
2022-10-17T09:54:52.299Z,100581.41
2022-10-17T09:57:20.812Z,100581.19
2022-10-17T09:59:58.122Z,100584.31
2022-10-17T10:02:27.204Z,100577.06
2022-10-17T10:05:09.027Z,100578.88
2022-10-17T10:07:38.849Z,100576.06
2022-10-17T10:10:27.615Z,100572.84
2022-10-17T10:13:18.517Z,100575.66
2022-10-17T10:15:47.289Z,100570.22
2022-10-17T10:18:32.819Z,100569.41
2022-10-17T10:21:08.534Z,100573.25
2022-10-17T10:23:36.760Z,100571.53
2022-10-17T10:26:06.303Z,100563.00
2022-10-17T10:28:37.133Z,100566.28
2022-10-17T10:31:08.089Z,100561.91
2022-10-17T10:33:41.760Z,100554.44
2022-10-17T10:36:09.069Z,100556.00
2022-10-17T10:38:40.429Z,100548.03
2022-10-17T10:41:11.839Z,100537.53
2022-10-17T10:43:43.641Z,100540.19
2022-10-17T10:46:25.576Z,100538.16
2022-10-17T10:49:00.881Z,100538.16
2022-10-17T10:51:38.009Z,100531.41
2022-10-17T10:54:21.800Z,100532.34
2022-10-17T10:56:54.748Z,100522.63
2022-10-17T10:59:36.231Z,100520.25
2022-10-17T11:02:27.656Z,100521.97
2022-10-17T11:05:02.098Z,100529.31
2022-10-17T11:08:03.817Z,100520.72
2022-10-17T11:10:53.475Z,100524.91
2022-10-17T11:13:25.368Z,100522.84
2022-10-17T11:16:16.489Z,100519.53
2022-10-17T11:18:53.711Z,100513.56
2022-10-17T11:21:43.763Z,100521.94
2022-10-17T11:24:23.940Z,100517.66
2022-10-17T11:26:56.908Z,100505.91
2022-10-17T11:29:31.530Z,100495.06
2022-10-17T11:32:05.752Z,100507.81
2022-10-17T11:34:40.012Z,100498.56
2022-10-17T11:37:22.215Z,100497.00
2022-10-17T11:39:57.830Z,100490.94
2022-10-17T11:42:41.499Z,100492.91
2022-10-17T11:45:19.621Z,100491.22
2022-10-17T11:47:51.946Z,100487.97
2022-10-17T11:53:28.902Z,100488.41
2022-10-17T11:55:59.146Z,100483.06
2022-10-17T11:58:39.865Z,100474.56
2022-10-17T12:01:21.563Z,100473.91
2022-10-17T12:04:21.949Z,100472.38
2022-10-17T12:07:21.976Z,100467.41
2022-10-17T12:09:51.772Z,100463.19
2022-10-17T12:12:28.346Z,100469.97
2022-10-17T12:15:21.295Z,100470.09
2022-10-17T12:18:04.334Z,100463.44
2022-10-17T12:20:38.699Z,100464.09
2022-10-17T12:23:11.626Z,100459.97
2022-10-17T12:25:50.053Z,100462.50
2022-10-17T12:28:47.283Z,100458.03
2022-10-17T12:31:17.197Z,100455.50
2022-10-17T12:34:04.854Z,100459.28
2022-10-17T12:36:31.715Z,100455.72
2022-10-17T12:39:01.555Z,100455.28
2022-10-17T12:41:40.609Z,100444.91
2022-10-17T12:44:13.499Z,100453.38
2022-10-17T12:47:07.505Z,100450.47
2022-10-17T12:49:54.451Z,100448.81
2022-10-17T12:52:32.173Z,100446.34
2022-10-17T12:55:13.021Z,100449.38
2022-10-17T12:58:03.925Z,100447.13
2022-10-17T13:01:18.852Z,100458.38
2022-10-17T13:03:45.214Z,100451.38
2022-10-17T13:06:25.104Z,100452.13
2022-10-17T13:09:03.515Z,100457.84
2022-10-17T13:11:34.263Z,100450.59
2022-10-17T13:14:04.005Z,100454.38
2022-10-17T13:16:36.572Z,100448.94
2022-10-17T13:19:15.914Z,100447.47
2022-10-17T13:21:59.744Z,100452.16
2022-10-17T13:24:35.598Z,100447.88
2022-10-17T13:27:02.930Z,100446.78
2022-10-17T13:29:30.836Z,100445.56
2022-10-17T13:32:03.494Z,100442.00
2022-10-17T13:34:32.228Z,100433.88
2022-10-17T13:37:05.112Z,100435.44
2022-10-17T13:40:00.340Z,100441.13
2022-10-17T13:42:40.573Z,100440.47
2022-10-17T13:45:34.881Z,100438.88
2022-10-17T13:48:04.746Z,100437.78
2022-10-17T13:50:44.163Z,100432.31
2022-10-17T13:53:36.872Z,100436.41
2022-10-17T13:56:27.743Z,100441.88
2022-10-17T13:58:59.149Z,100440.69
2022-10-17T14:01:28.751Z,100429.53
2022-10-17T14:04:07.741Z,100430.28
2022-10-17T14:06:46.178Z,100433.31
2022-10-17T14:09:24.848Z,100434.19
2022-10-17T14:12:11.447Z,100432.53
2022-10-17T14:15:05.269Z,100436.00
2022-10-17T14:17:28.993Z,100445.81
2022-10-17T14:20:29.669Z,100446.13
2022-10-17T14:22:54.553Z,100443.25
2022-10-17T14:25:35.501Z,100441.56
2022-10-17T14:28:11.400Z,100439.22
2022-10-17T14:30:57.765Z,100434.56
2022-10-17T14:33:29.867Z,100436.78
2022-10-17T14:35:58.766Z,100436.78
2022-10-17T14:38:27.782Z,100435.09
2022-10-17T14:43:59.539Z,100437.00
2022-10-17T14:46:27.347Z,100437.25
2022-10-17T14:48:58.939Z,100441.69
2022-10-17T14:51:25.870Z,100432.47
2022-10-17T14:54:05.762Z,100439.25
2022-10-17T14:56:40.366Z,100431.88
2022-10-17T14:59:11.788Z,100442.56
2022-10-17T15:01:39.336Z,100435.22
2022-10-17T15:04:06.158Z,100436.22
2022-10-17T15:06:34.497Z,100441.78
2022-10-17T15:09:02.070Z,100431.31
2022-10-17T15:11:28.928Z,100441.91
2022-10-17T15:13:56.295Z,100433.78
2022-10-17T15:16:26.576Z,100447.78
2022-10-17T15:18:54.397Z,100440.78
2022-10-17T15:21:39.255Z,100434.19
2022-10-17T15:24:07.677Z,100438.28
2022-10-17T15:26:35.638Z,100442.41
2022-10-17T15:29:02.889Z,100439.63
2022-10-17T15:31:31.107Z,100447.81
2022-10-17T15:33:57.986Z,100446.50
2022-10-17T15:36:29.115Z,100454.69
2022-10-17T15:38:58.946Z,100438.56
2022-10-17T15:41:28.893Z,100449.13
2022-10-17T15:43:56.309Z,100454.34
2022-10-17T15:46:33.311Z,100447.63
2022-10-17T15:49:08.171Z,100451.63
2022-10-17T15:51:35.042Z,100455.25
2022-10-17T15:54:02.110Z,100449.81
2022-10-17T15:56:31.854Z,100451.13
2022-10-17T15:58:58.809Z,100451.00
2022-10-17T16:01:28.633Z,100458.09
2022-10-17T16:03:56.910Z,100461.28
2022-10-17T16:06:24.941Z,100461.94
2022-10-17T16:08:52.587Z,100461.81
2022-10-17T16:11:29.453Z,100457.91
2022-10-17T16:13:59.432Z,100459.31
2022-10-17T16:16:26.747Z,100464.84
2022-10-17T16:18:53.604Z,100463.44
2022-10-17T16:21:26.820Z,100458.00
2022-10-17T16:23:54.106Z,100468.09
2022-10-17T16:26:20.970Z,100467.13
2022-10-17T16:28:47.894Z,100465.91
2022-10-17T16:31:23.488Z,100470.22
2022-10-17T16:33:52.565Z,100469.25
2022-10-17T16:36:20.154Z,100468.81
2022-10-17T16:38:48.024Z,100474.00
2022-10-17T16:41:30.075Z,100480.31
2022-10-17T16:44:00.013Z,100475.78
2022-10-17T16:46:28.713Z,100481.63
2022-10-17T16:48:56.645Z,100481.47
2022-10-17T16:51:23.484Z,100475.56
2022-10-17T16:53:52.015Z,100477.75
2022-10-17T16:56:21.146Z,100466.16
2022-10-17T16:58:49.208Z,100463.69
2022-10-17T17:01:19.294Z,100467.16
2022-10-17T17:03:47.770Z,100468.75
2022-10-17T17:06:17.278Z,100465.44
2022-10-17T17:08:44.649Z,100468.72
2022-10-17T17:11:14.158Z,100467.03
2022-10-17T17:13:41.453Z,100477.03
2022-10-17T17:16:20.860Z,100472.06
2022-10-17T17:18:49.363Z,100467.69
2022-10-17T17:21:16.759Z,100471.75
2022-10-17T17:23:44.308Z,100477.59
2022-10-17T17:26:17.801Z,100481.16
2022-10-17T17:28:45.942Z,100479.63
2022-10-17T17:31:18.888Z,100473.81
2022-10-17T17:33:46.901Z,100479.78
2022-10-17T17:36:19.212Z,100482.44
2022-10-17T17:38:48.178Z,100474.00
2022-10-17T17:41:17.572Z,100474.16
2022-10-17T17:43:46.494Z,100481.53
2022-10-17T17:46:15.249Z,100485.59
2022-10-17T17:48:43.914Z,100489.03
2022-10-17T17:51:13.290Z,100484.66
2022-10-17T17:53:41.254Z,100499.97
2022-10-17T17:56:15.405Z,100493.09
2022-10-17T17:58:44.659Z,100489.50
2022-10-17T18:01:22.845Z,100492.00
2022-10-17T18:03:52.310Z,100488.06
2022-10-17T18:06:21.630Z,100482.75
2022-10-17T18:08:55.646Z,100479.63
2022-10-17T18:11:23.703Z,100477.91
2022-10-17T18:14:00.489Z,100480.41
2022-10-17T18:16:31.190Z,100469.75
2022-10-17T18:19:04.088Z,100472.84
2022-10-17T18:21:36.404Z,100472.06
2022-10-17T18:24:07.714Z,100472.84
2022-10-17T18:26:36.914Z,100476.59
2022-10-17T18:29:06.218Z,100474.25
2022-10-17T18:31:35.228Z,100471.75
2022-10-17T18:34:04.225Z,100474.72
2022-10-17T18:36:34.141Z,100481.28
2022-10-17T18:39:04.554Z,100475.19
2022-10-17T18:41:33.954Z,100483.16
2022-10-17T18:44:02.214Z,100482.19
2022-10-17T18:46:33.112Z,100487.81
2022-10-17T18:49:01.378Z,100483.13
2022-10-17T18:51:29.117Z,100491.41
2022-10-17T18:53:58.210Z,100480.91
2022-10-17T18:56:28.509Z,100491.53
2022-10-17T18:58:59.862Z,100479.78
2022-10-17T19:01:28.865Z,100485.53
2022-10-17T19:03:59.175Z,100491.50
2022-10-17T19:06:29.943Z,100490.53
2022-10-17T19:08:57.102Z,100482.69
2022-10-17T19:11:27.136Z,100495.50
2022-10-17T19:13:57.048Z,100488.44
2022-10-17T19:16:32.657Z,100483.28
2022-10-17T19:19:04.113Z,100480.13
2022-10-17T19:21:33.943Z,100486.84
2022-10-17T19:24:04.257Z,100490.59
2022-10-17T19:26:34.616Z,100492.78
2022-10-17T19:29:02.764Z,100482.34
2022-10-17T19:31:32.966Z,100485.78
2022-10-17T19:34:02.820Z,100489.50
2022-10-17T19:36:34.790Z,100491.84
2022-10-17T19:39:08.470Z,100491.38
2022-10-17T19:41:36.452Z,100498.88
2022-10-17T19:44:04.812Z,100498.88
2022-10-17T19:46:34.119Z,100499.16
2022-10-17T19:49:03.031Z,100506.34
2022-10-17T19:51:31.074Z,100493.50
2022-10-17T19:54:02.674Z,100503.34
2022-10-17T19:56:32.953Z,100503.47
2022-10-17T19:59:00.781Z,100499.25
2022-10-17T20:01:32.733Z,100496.13
2022-10-17T20:03:59.960Z,100494.66
2022-10-17T20:06:27.324Z,100495.56
2022-10-17T20:08:55.139Z,100505.94
2022-10-17T20:11:25.373Z,100495.88
2022-10-17T20:13:55.055Z,100502.88
2022-10-17T20:16:25.176Z,100498.56
2022-10-17T20:18:55.249Z,100501.56
2022-10-17T20:21:27.621Z,100500.19
2022-10-17T20:23:55.359Z,100497.84
2022-10-17T20:26:37.093Z,100499.81
2022-10-17T20:29:26.360Z,100503.16
2022-10-17T20:31:53.125Z,100507.22
2022-10-17T20:34:20.016Z,100507.06
2022-10-17T20:36:47.402Z,100503.00
2022-10-17T20:39:15.810Z,100513.84
2022-10-17T20:41:43.100Z,100508.13
2022-10-17T20:44:10.893Z,100506.16
2022-10-17T20:46:44.732Z,100512.34
2022-10-17T20:49:16.812Z,100510.91
2022-10-17T20:51:44.091Z,100500.25
2022-10-17T20:54:11.000Z,100512.53
2022-10-17T20:56:37.737Z,100506.94
2022-10-17T20:59:07.965Z,100503.41
2022-10-17T21:01:35.969Z,100501.31
2022-10-17T21:04:26.833Z,100495.66
2022-10-17T21:06:51.716Z,100496.16
2022-10-17T21:09:18.604Z,100490.84
2022-10-17T21:11:45.684Z,100488.09
2022-10-17T21:14:12.718Z,100493.97
2022-10-17T21:16:40.286Z,100487.53
2022-10-17T21:19:07.077Z,100488.81
2022-10-17T21:21:36.775Z,100486.63
2022-10-17T21:24:09.566Z,100490.06
2022-10-17T21:26:37.358Z,100488.03
2022-10-17T21:29:05.741Z,100492.03
2022-10-17T21:31:35.178Z,100486.16
2022-10-17T21:34:10.123Z,100490.88
2022-10-17T21:36:37.135Z,100491.66
2022-10-17T21:39:05.336Z,100483.97
2022-10-17T21:41:33.777Z,100487.81
2022-10-17T21:44:04.168Z,100488.09
2022-10-17T21:46:32.902Z,100480.06
2022-10-17T21:49:01.066Z,100481.31
2022-10-17T21:51:28.103Z,100485.56
2022-10-17T21:53:56.570Z,100481.94
2022-10-17T21:56:28.713Z,100480.84
2022-10-17T21:58:55.630Z,100476.91
2022-10-17T22:01:25.245Z,100465.75
2022-10-17T22:03:57.830Z,100470.25
2022-10-17T22:06:42.762Z,100468.50
2022-10-17T22:09:22.490Z,100468.88
2022-10-17T22:11:52.274Z,100465.53
2022-10-17T22:14:20.504Z,100466.09
2022-10-17T22:16:48.620Z,100471.19
2022-10-17T22:19:18.676Z,100467.09
2022-10-17T22:21:45.704Z,100469.59
2022-10-17T22:24:14.762Z,100466.88
2022-10-17T22:26:42.513Z,100465.66
2022-10-17T22:29:10.785Z,100468.47
2022-10-17T22:31:38.527Z,100475.25
2022-10-17T22:34:06.699Z,100469.41
2022-10-17T22:36:34.506Z,100468.22
2022-10-17T22:39:01.473Z,100467.13
2022-10-17T22:41:28.517Z,100473.00
2022-10-17T22:43:55.378Z,100468.72
2022-10-17T22:46:22.182Z,100465.25
2022-10-17T22:48:48.933Z,100471.09
2022-10-17T22:51:16.028Z,100471.97
2022-10-17T22:53:43.009Z,100463.25
2022-10-17T22:56:12.724Z,100464.75
2022-10-17T22:58:40.015Z,100461.94
2022-10-17T23:01:08.832Z,100459.91
2022-10-17T23:03:36.246Z,100462.22
2022-10-17T23:06:04.077Z,100464.75
2022-10-17T23:08:31.054Z,100462.00
2022-10-17T23:10:57.970Z,100454.22
2022-10-17T23:13:24.867Z,100457.03
2022-10-17T23:15:56.149Z,100455.59
2022-10-17T23:18:25.006Z,100458.69
2022-10-17T23:20:52.187Z,100457.41
2022-10-17T23:23:19.740Z,100456.50
2022-10-17T23:25:47.198Z,100450.44
2022-10-17T23:28:14.140Z,100452.09
2022-10-17T23:30:41.516Z,100447.81
2022-10-17T23:33:11.978Z,100451.91
2022-10-17T23:35:38.861Z,100446.28
2022-10-17T23:38:05.710Z,100448.41
2022-10-17T23:40:32.589Z,100453.13
2022-10-17T23:42:59.401Z,100447.69
2022-10-17T23:45:26.332Z,100450.00
2022-10-17T23:47:53.173Z,100445.66
2022-10-17T23:50:19.929Z,100444.81
2022-10-17T23:52:46.758Z,100442.06
2022-10-17T23:55:13.531Z,100448.41
2022-10-17T23:57:40.322Z,100451.97
